SWR2V KBOS-LSZH
Flight info
| Callsign | SWR2V |
|---|---|
| Flight time | N/A |
| Altitude | 39000 |
| Route | LBSTA8 LBSTA DCT ALLEX N685B NEEKO/M084F400 NATY GISTI/N0492F410 DCT LODLA DCT LILNO DCT LESLU DCT LIZAD DCT JSY DCT TURDU DCT TADUP DCT TEPRI DCT POGZI DCT GELTA DCT MANAG DCT PEVIT DCT BLM |
| Aircraft | A359/H-SDE2E3GHIJ3J4J5LM1ORWXY/LB1D1 |
Departure
| Time | N/A |
|---|---|
| Airport | Boston Logan International Airport (KBOS) |
Arrival
| Time | 2026-04-30 07:47 |
|---|---|
| Airport | Zürich Airport (LSZH) |
| Time | Latitude | Longitude | Altitude | Speed | Heading |
|---|---|---|---|---|---|
| 2026-04-30 05:40 | 52.34329 | -11.79863 | 41070 ft | 469 kts | 118° |
| 2026-04-30 05:40 | 52.31845 | -11.71919 | 41072 ft | 469 kts | 118° |
| 2026-04-30 05:41 | 52.28868 | -11.62434 | 41064 ft | 469 kts | 118° |
| 2026-04-30 05:41 | 52.25904 | -11.53027 | 41063 ft | 468 kts | 118° |
| 2026-04-30 05:42 | 52.22917 | -11.43582 | 41068 ft | 469 kts | 118° |
| 2026-04-30 05:42 | 52.19918 | -11.34135 | 41062 ft | 469 kts | 118° |
| 2026-04-30 05:43 | 52.16906 | -11.24687 | 41061 ft | 470 kts | 118° |
| 2026-04-30 05:43 | 52.13886 | -11.15248 | 41062 ft | 470 kts | 118° |
| 2026-04-30 05:44 | 52.10857 | -11.05816 | 41058 ft | 470 kts | 118° |
| 2026-04-30 05:44 | 52.07817 | -10.96391 | 41059 ft | 470 kts | 118° |
| 2026-04-30 05:45 | 52.04773 | -10.86985 | 41050 ft | 470 kts | 118° |
| 2026-04-30 05:45 | 52.01725 | -10.77603 | 41051 ft | 470 kts | 119° |
| 2026-04-30 05:46 | 51.98668 | -10.68227 | 41047 ft | 469 kts | 119° |
| 2026-04-30 05:46 | 51.95605 | -10.58875 | 41048 ft | 469 kts | 119° |
| 2026-04-30 05:47 | 51.92757 | -10.49356 | 41045 ft | 470 kts | 115° |
| 2026-04-30 05:47 | 51.90209 | -10.39610 | 41042 ft | 470 kts | 114° |
| 2026-04-30 05:48 | 51.87722 | -10.29902 | 41048 ft | 470 kts | 114° |
| 2026-04-30 05:48 | 51.85208 | -10.20125 | 41048 ft | 470 kts | 114° |
| 2026-04-30 05:49 | 51.82682 | -10.10371 | 41045 ft | 471 kts | 114° |
| 2026-04-30 05:49 | 51.80141 | -10.00620 | 41045 ft | 471 kts | 114° |
| 2026-04-30 05:50 | 51.77590 | -9.90872 | 41042 ft | 471 kts | 114° |
| 2026-04-30 05:50 | 51.75030 | -9.81133 | 41036 ft | 471 kts | 114° |
| 2026-04-30 05:51 | 51.72463 | -9.71409 | 41036 ft | 471 kts | 115° |
| 2026-04-30 05:51 | 51.69893 | -9.61708 | 41040 ft | 469 kts | 115° |
| 2026-04-30 05:52 | 51.67324 | -9.52061 | 41035 ft | 468 kts | 115° |
| 2026-04-30 05:52 | 51.64746 | -9.42419 | 41041 ft | 468 kts | 115° |
| 2026-04-30 05:53 | 51.62168 | -9.32815 | 41034 ft | 467 kts | 115° |
| 2026-04-30 05:53 | 51.59482 | -9.23361 | 41043 ft | 467 kts | 121° |
| 2026-04-30 05:54 | 51.55854 | -9.14770 | 41036 ft | 463 kts | 128° |
| 2026-04-30 05:54 | 51.51953 | -9.06525 | 41038 ft | 464 kts | 129° |
| 2026-04-30 05:55 | 51.47994 | -8.98328 | 41039 ft | 466 kts | 129° |
| 2026-04-30 05:55 | 51.44042 | -8.90132 | 41028 ft | 463 kts | 129° |
| 2026-04-30 05:56 | 51.40122 | -8.81989 | 41026 ft | 460 kts | 129° |
| 2026-04-30 05:56 | 51.36204 | -8.73866 | 41026 ft | 461 kts | 129° |
| 2026-04-30 05:57 | 51.32273 | -8.65743 | 41022 ft | 463 kts | 129° |
| 2026-04-30 05:57 | 51.28327 | -8.57613 | 41016 ft | 462 kts | 129° |
| 2026-04-30 05:58 | 51.24373 | -8.49495 | 41030 ft | 463 kts | 129° |
| 2026-04-30 05:58 | 51.20405 | -8.41374 | 41010 ft | 465 kts | 129° |
| 2026-04-30 05:59 | 51.16449 | -8.33302 | 41018 ft | 465 kts | 129° |
| 2026-04-30 05:59 | 51.12456 | -8.25179 | 41008 ft | 465 kts | 129° |
| 2026-04-30 06:00 | 51.08458 | -8.17073 | 41020 ft | 465 kts | 129° |
| 2026-04-30 06:00 | 51.04454 | -8.08978 | 41012 ft | 465 kts | 129° |
| 2026-04-30 06:01 | 51.00488 | -8.00820 | 41013 ft | 467 kts | 126° |
| 2026-04-30 06:01 | 50.97128 | -7.92061 | 41019 ft | 467 kts | 122° |
| 2026-04-30 06:02 | 50.93900 | -7.83103 | 41015 ft | 467 kts | 121° |
| 2026-04-30 06:02 | 50.90696 | -7.74145 | 41016 ft | 467 kts | 121° |
| 2026-04-30 06:03 | 50.87474 | -7.65199 | 41014 ft | 467 kts | 121° |
| 2026-04-30 06:03 | 50.84240 | -7.56281 | 41015 ft | 467 kts | 121° |
| 2026-04-30 06:04 | 50.80995 | -7.47376 | 41011 ft | 467 kts | 122° |
| 2026-04-30 06:05 | 50.76124 | -7.34064 | 41010 ft | 466 kts | 122° |
| 2026-04-30 06:05 | 50.72872 | -7.25213 | 41012 ft | 467 kts | 122° |
| 2026-04-30 06:06 | 50.69610 | -7.16365 | 41014 ft | 466 kts | 122° |
| 2026-04-30 06:06 | 50.66368 | -7.07603 | 41022 ft | 466 kts | 122° |
| 2026-04-30 06:07 | 50.63089 | -6.98773 | 41000 ft | 467 kts | 122° |
| 2026-04-30 06:07 | 50.59815 | -6.89980 | 41014 ft | 464 kts | 122° |
| 2026-04-30 06:08 | 50.56540 | -6.81218 | 41014 ft | 465 kts | 122° |
| 2026-04-30 06:08 | 50.53253 | -6.72456 | 41014 ft | 465 kts | 122° |
| 2026-04-30 06:09 | 50.49964 | -6.63716 | 41023 ft | 464 kts | 122° |
| 2026-04-30 06:09 | 50.46672 | -6.54997 | 41020 ft | 465 kts | 122° |
| 2026-04-30 06:10 | 50.43365 | -6.46269 | 41016 ft | 465 kts | 122° |
| 2026-04-30 06:10 | 50.40626 | -6.39059 | 41018 ft | 462 kts | 123° |
| 2026-04-30 06:11 | 50.37889 | -6.31878 | 41021 ft | 463 kts | 122° |
| 2026-04-30 06:11 | 50.34585 | -6.23235 | 41023 ft | 462 kts | 123° |
| 2026-04-30 06:12 | 50.31284 | -6.14629 | 41022 ft | 461 kts | 123° |
| 2026-04-30 06:12 | 50.27975 | -6.06029 | 41027 ft | 463 kts | 123° |
| 2026-04-30 06:13 | 50.24647 | -5.97410 | 41012 ft | 462 kts | 123° |
| 2026-04-30 06:13 | 50.21325 | -5.88834 | 41024 ft | 461 kts | 123° |
| 2026-04-30 06:14 | 50.17989 | -5.80249 | 41030 ft | 463 kts | 123° |
| 2026-04-30 06:14 | 50.14652 | -5.71689 | 41027 ft | 461 kts | 123° |
| 2026-04-30 06:15 | 50.11315 | -5.63162 | 41031 ft | 461 kts | 123° |
| 2026-04-30 06:15 | 50.07958 | -5.54609 | 41022 ft | 462 kts | 123° |
| 2026-04-30 06:16 | 50.04624 | -5.46142 | 41016 ft | 461 kts | 123° |
| 2026-04-30 06:16 | 50.01256 | -5.37617 | 41035 ft | 464 kts | 123° |
| 2026-04-30 06:17 | 49.97873 | -5.29081 | 41035 ft | 464 kts | 123° |
| 2026-04-30 06:17 | 49.94489 | -5.20568 | 41024 ft | 463 kts | 123° |
| 2026-04-30 06:18 | 49.91188 | -5.12292 | 41037 ft | 464 kts | 123° |
| 2026-04-30 06:18 | 49.87782 | -5.03781 | 41042 ft | 464 kts | 124° |
| 2026-04-30 06:19 | 49.84377 | -4.95300 | 41041 ft | 464 kts | 123° |
| 2026-04-30 06:19 | 49.80969 | -4.86838 | 41041 ft | 467 kts | 123° |
| 2026-04-30 06:20 | 49.77524 | -4.78313 | 41040 ft | 467 kts | 123° |
| 2026-04-30 06:20 | 49.74076 | -4.69805 | 41039 ft | 467 kts | 123° |
| 2026-04-30 06:21 | 49.70618 | -4.61303 | 41039 ft | 467 kts | 123° |
| 2026-04-30 06:21 | 49.67153 | -4.52808 | 41034 ft | 467 kts | 124° |
| 2026-04-30 06:22 | 49.63688 | -4.44343 | 41045 ft | 467 kts | 124° |
| 2026-04-30 06:22 | 49.60292 | -4.35791 | 41036 ft | 469 kts | 119° |
| 2026-04-30 06:23 | 49.58032 | -4.26356 | 41030 ft | 472 kts | 107° |
| 2026-04-30 06:23 | 49.56459 | -4.16532 | 41039 ft | 473 kts | 105° |
| 2026-04-30 06:24 | 49.55003 | -4.06717 | 41045 ft | 473 kts | 105° |
| 2026-04-30 06:24 | 49.53522 | -3.96854 | 41035 ft | 473 kts | 105° |
| 2026-04-30 06:25 | 49.52008 | -3.87001 | 41041 ft | 473 kts | 105° |
| 2026-04-30 06:25 | 49.50475 | -3.77151 | 41043 ft | 473 kts | 105° |
| 2026-04-30 06:26 | 49.48958 | -3.67464 | 41046 ft | 473 kts | 105° |
| 2026-04-30 06:26 | 49.47410 | -3.57640 | 41039 ft | 473 kts | 106° |
| 2026-04-30 06:27 | 49.45854 | -3.47813 | 41049 ft | 473 kts | 105° |
| 2026-04-30 06:27 | 49.44552 | -3.39634 | 41050 ft | 473 kts | 105° |
| 2026-04-30 06:28 | 49.42978 | -3.29804 | 41057 ft | 473 kts | 105° |
| 2026-04-30 06:28 | 49.41421 | -3.20134 | 41057 ft | 473 kts | 106° |
| 2026-04-30 06:29 | 49.39830 | -3.10312 | 41050 ft | 473 kts | 106° |
| 2026-04-30 06:29 | 49.38235 | -3.00526 | 41056 ft | 473 kts | 106° |
| 2026-04-30 06:30 | 49.36633 | -2.90745 | 41057 ft | 472 kts | 106° |
| 2026-04-30 06:30 | 49.36100 | -2.87511 | 41058 ft | 472 kts | 106° |
| 2026-04-30 06:32 | 49.35351 | -2.82966 | 41059 ft | 472 kts | 106° |
| 2026-04-30 06:33 | 49.33733 | -2.73196 | 41049 ft | 472 kts | 106° |
| 2026-04-30 06:33 | 49.32107 | -2.63436 | 41045 ft | 473 kts | 106° |
| 2026-04-30 06:34 | 49.30473 | -2.53679 | 41050 ft | 473 kts | 106° |
| 2026-04-30 06:34 | 49.28841 | -2.43988 | 41054 ft | 473 kts | 106° |
| 2026-04-30 06:35 | 49.27187 | -2.34226 | 41057 ft | 473 kts | 106° |
| 2026-04-30 06:35 | 49.25526 | -2.24470 | 41066 ft | 473 kts | 106° |
| 2026-04-30 06:36 | 49.23856 | -2.14725 | 41066 ft | 473 kts | 106° |
| 2026-04-30 06:36 | 49.22271 | -2.04955 | 41072 ft | 474 kts | 101° |
| 2026-04-30 06:37 | 49.21358 | -1.94950 | 41054 ft | 475 kts | 99° |
| 2026-04-30 06:37 | 49.20587 | -1.84916 | 41075 ft | 475 kts | 98° |
| 2026-04-30 06:38 | 49.19831 | -1.74875 | 41065 ft | 475 kts | 98° |
| 2026-04-30 06:38 | 49.19061 | -1.64905 | 41073 ft | 475 kts | 98° |
| 2026-04-30 06:39 | 49.18269 | -1.54868 | 41075 ft | 475 kts | 98° |
| 2026-04-30 06:39 | 49.17467 | -1.44847 | 41072 ft | 475 kts | 98° |
| 2026-04-30 06:40 | 49.16656 | -1.34828 | 41080 ft | 475 kts | 98° |
| 2026-04-30 06:40 | 49.15836 | -1.24810 | 41072 ft | 474 kts | 99° |
| 2026-04-30 06:41 | 49.15009 | -1.14817 | 41080 ft | 474 kts | 99° |
| 2026-04-30 06:41 | 49.14174 | -1.04827 | 41086 ft | 474 kts | 99° |
| 2026-04-30 06:42 | 49.13331 | -0.94846 | 41084 ft | 474 kts | 99° |
| 2026-04-30 06:42 | 49.12484 | -0.84925 | 41090 ft | 474 kts | 99° |
| 2026-04-30 06:43 | 49.11621 | -0.74922 | 41096 ft | 476 kts | 99° |
| 2026-04-30 06:43 | 49.10748 | -0.64897 | 41100 ft | 476 kts | 99° |
| 2026-04-30 06:44 | 49.09866 | -0.54879 | 41104 ft | 476 kts | 99° |
| 2026-04-30 06:44 | 49.08974 | -0.44874 | 41102 ft | 476 kts | 99° |
| 2026-04-30 06:45 | 49.07658 | -0.35002 | 41098 ft | 475 kts | 105° |
| 2026-04-30 06:45 | 49.06072 | -0.25225 | 41102 ft | 474 kts | 105° |
| 2026-04-30 06:46 | 49.04526 | -0.15436 | 41103 ft | 475 kts | 104° |
| 2026-04-30 06:46 | 49.03033 | -0.05633 | 41102 ft | 475 kts | 104° |
| 2026-04-30 06:47 | 49.01556 | 0.04166 | 41100 ft | 474 kts | 104° |
| 2026-04-30 06:47 | 49.00069 | 0.13971 | 41103 ft | 475 kts | 104° |
| 2026-04-30 06:48 | 48.98574 | 0.23758 | 41108 ft | 475 kts | 104° |
| 2026-04-30 06:48 | 48.97068 | 0.33541 | 41109 ft | 474 kts | 104° |
| 2026-04-30 06:49 | 48.95555 | 0.43306 | 41118 ft | 475 kts | 105° |
| 2026-04-30 06:49 | 48.94029 | 0.53099 | 41125 ft | 476 kts | 104° |
| 2026-04-30 06:50 | 48.92459 | 0.62897 | 41126 ft | 477 kts | 105° |
| 2026-04-30 06:50 | 48.90826 | 0.72671 | 41126 ft | 477 kts | 105° |
| 2026-04-30 06:51 | 48.89196 | 0.82382 | 41129 ft | 477 kts | 105° |
| 2026-04-30 06:51 | 48.87558 | 0.92141 | 41132 ft | 477 kts | 105° |
| 2026-04-30 06:52 | 48.85911 | 1.01929 | 41146 ft | 479 kts | 105° |
| 2026-04-30 06:52 | 48.84255 | 1.11713 | 41149 ft | 478 kts | 105° |
| 2026-04-30 06:53 | 48.82591 | 1.21495 | 41150 ft | 478 kts | 105° |
| 2026-04-30 06:53 | 48.80920 | 1.31258 | 41145 ft | 478 kts | 105° |
| 2026-04-30 06:54 | 48.79240 | 1.41010 | 41145 ft | 477 kts | 105° |
| 2026-04-30 06:54 | 48.77555 | 1.50748 | 41142 ft | 477 kts | 105° |
| 2026-04-30 06:55 | 48.75863 | 1.60471 | 41143 ft | 478 kts | 105° |
| 2026-04-30 06:55 | 48.74160 | 1.70201 | 41141 ft | 477 kts | 105° |
| 2026-04-30 06:56 | 48.72463 | 1.79844 | 41143 ft | 477 kts | 105° |
| 2026-04-30 06:56 | 48.70748 | 1.89538 | 41154 ft | 477 kts | 105° |
| 2026-04-30 06:57 | 48.69023 | 1.99238 | 41155 ft | 476 kts | 105° |
| 2026-04-30 06:57 | 48.67292 | 2.08918 | 41158 ft | 477 kts | 105° |
| 2026-04-30 06:58 | 48.65555 | 2.18581 | 41153 ft | 477 kts | 105° |
| 2026-04-30 06:58 | 48.63806 | 2.28251 | 41183 ft | 477 kts | 105° |
| 2026-04-30 06:59 | 48.62047 | 2.37936 | 41184 ft | 478 kts | 105° |
| 2026-04-30 06:59 | 48.60275 | 2.47634 | 41157 ft | 478 kts | 105° |
| 2026-04-30 07:00 | 48.58510 | 2.57244 | 41155 ft | 478 kts | 105° |
| 2026-04-30 07:00 | 48.56724 | 2.66918 | 41157 ft | 479 kts | 105° |
| 2026-04-30 07:01 | 48.55283 | 2.76726 | 41160 ft | 479 kts | 95° |
| 2026-04-30 07:01 | 48.54801 | 2.86752 | 41172 ft | 479 kts | 93° |
| 2026-04-30 07:02 | 48.54477 | 2.96800 | 41172 ft | 479 kts | 92° |
| 2026-04-30 07:02 | 48.54166 | 3.06788 | 41171 ft | 479 kts | 92° |
| 2026-04-30 07:03 | 48.53825 | 3.16835 | 41176 ft | 479 kts | 92° |
| 2026-04-30 07:03 | 48.53466 | 3.26877 | 41177 ft | 479 kts | 92° |
| 2026-04-30 07:04 | 48.53096 | 3.36922 | 41183 ft | 479 kts | 92° |
| 2026-04-30 07:04 | 48.52717 | 3.46959 | 41186 ft | 479 kts | 92° |
| 2026-04-30 07:05 | 48.52136 | 3.62004 | 41181 ft | 479 kts | 92° |
| 2026-04-30 07:05 | 48.51804 | 3.70352 | 41184 ft | 479 kts | 92° |
| 2026-04-30 07:06 | 48.51398 | 3.80373 | 41185 ft | 479 kts | 92° |
| 2026-04-30 07:06 | 48.50983 | 3.90413 | 41183 ft | 479 kts | 92° |
| 2026-04-30 07:07 | 48.50242 | 4.00397 | 41186 ft | 480 kts | 102° |
| 2026-04-30 07:07 | 48.47891 | 4.09826 | 41183 ft | 482 kts | 114° |
| 2026-04-30 07:08 | 48.44848 | 4.18847 | 41184 ft | 483 kts | 116° |
| 2026-04-30 07:08 | 48.41716 | 4.27729 | 41183 ft | 483 kts | 117° |
| 2026-04-30 07:09 | 48.38564 | 4.36684 | 41181 ft | 485 kts | 116° |
| 2026-04-30 07:09 | 48.35423 | 4.45665 | 41181 ft | 485 kts | 116° |
| 2026-04-30 07:10 | 48.32281 | 4.54642 | 41182 ft | 486 kts | 116° |
| 2026-04-30 07:10 | 48.29128 | 4.63628 | 41175 ft | 486 kts | 117° |
| 2026-04-30 07:11 | 48.25965 | 4.72602 | 41181 ft | 486 kts | 116° |
| 2026-04-30 07:11 | 48.22789 | 4.81580 | 41177 ft | 487 kts | 116° |
| 2026-04-30 07:12 | 48.19603 | 4.90558 | 41171 ft | 488 kts | 117° |
| 2026-04-30 07:12 | 48.16406 | 4.99538 | 41173 ft | 488 kts | 116° |
| 2026-04-30 07:13 | 48.13205 | 5.08496 | 41173 ft | 488 kts | 117° |
| 2026-04-30 07:13 | 48.10247 | 5.17619 | 41181 ft | 486 kts | 106° |
| 2026-04-30 07:14 | 48.08233 | 5.27204 | 41176 ft | 486 kts | 104° |
| 2026-04-30 07:14 | 48.06384 | 5.36922 | 41182 ft | 486 kts | 103° |
| 2026-04-30 07:15 | 48.04549 | 5.46643 | 41186 ft | 486 kts | 104° |
| 2026-04-30 07:15 | 48.02685 | 5.56362 | 41188 ft | 486 kts | 104° |
| 2026-04-30 07:16 | 48.00801 | 5.66078 | 41187 ft | 487 kts | 104° |
| 2026-04-30 07:16 | 47.98901 | 5.75805 | 41182 ft | 488 kts | 105° |
| 2026-04-30 07:17 | 47.96995 | 5.85521 | 41182 ft | 488 kts | 105° |
| 2026-04-30 07:18 | 47.94121 | 6.00081 | 41186 ft | 489 kts | 105° |
| 2026-04-30 07:18 | 47.92201 | 6.09750 | 41187 ft | 489 kts | 105° |
| 2026-04-30 07:19 | 47.90261 | 6.19472 | 41183 ft | 489 kts | 105° |
| 2026-04-30 07:19 | 47.89297 | 6.24281 | 40867 ft | 476 kts | 105° |
| 2026-04-30 07:19 | 47.88352 | 6.28979 | 39890 ft | 472 kts | 105° |
| 2026-04-30 07:19 | 47.87405 | 6.33684 | 38598 ft | 475 kts | 105° |
| 2026-04-30 07:20 | 47.86452 | 6.38412 | 37186 ft | 477 kts | 105° |
| 2026-04-30 07:20 | 47.85505 | 6.43088 | 36445 ft | 470 kts | 105° |
| 2026-04-30 07:20 | 47.84560 | 6.47743 | 35794 ft | 469 kts | 104° |
| 2026-04-30 07:20 | 47.83618 | 6.52381 | 35113 ft | 468 kts | 104° |
| 2026-04-30 07:21 | 47.82674 | 6.57020 | 34366 ft | 468 kts | 104° |
| 2026-04-30 07:21 | 47.81728 | 6.61652 | 33528 ft | 468 kts | 104° |
| 2026-04-30 07:21 | 47.80782 | 6.66277 | 32697 ft | 467 kts | 104° |
| 2026-04-30 07:21 | 47.79838 | 6.70886 | 31912 ft | 465 kts | 104° |
| 2026-04-30 07:22 | 47.77951 | 6.80060 | 30251 ft | 465 kts | 105° |
| 2026-04-30 07:22 | 47.77003 | 6.84653 | 29278 ft | 465 kts | 105° |
| 2026-04-30 07:22 | 47.76067 | 6.89167 | 28581 ft | 460 kts | 105° |
| 2026-04-30 07:23 | 47.75119 | 6.93725 | 28003 ft | 453 kts | 105° |
| 2026-04-30 07:23 | 47.74205 | 6.98114 | 27413 ft | 447 kts | 104° |
| 2026-04-30 07:23 | 47.73290 | 7.02496 | 26813 ft | 442 kts | 104° |
| 2026-04-30 07:23 | 47.72384 | 7.06833 | 26219 ft | 437 kts | 104° |
| 2026-04-30 07:24 | 47.71487 | 7.11115 | 25639 ft | 432 kts | 104° |
| 2026-04-30 07:24 | 47.70596 | 7.15366 | 25060 ft | 428 kts | 104° |
| 2026-04-30 07:24 | 47.69714 | 7.19560 | 24488 ft | 425 kts | 104° |
| 2026-04-30 07:24 | 47.68841 | 7.23719 | 23992 ft | 420 kts | 104° |
| 2026-04-30 07:25 | 47.67974 | 7.27828 | 23360 ft | 416 kts | 104° |
| 2026-04-30 07:25 | 47.67112 | 7.31901 | 22769 ft | 411 kts | 104° |
| 2026-04-30 07:25 | 47.66260 | 7.35924 | 22216 ft | 406 kts | 104° |
| 2026-04-30 07:25 | 47.65418 | 7.39892 | 21653 ft | 401 kts | 104° |
| 2026-04-30 07:26 | 47.64583 | 7.43819 | 21094 ft | 398 kts | 104° |
| 2026-04-30 07:26 | 47.63751 | 7.47733 | 20529 ft | 397 kts | 104° |
| 2026-04-30 07:26 | 47.62920 | 7.51626 | 20059 ft | 399 kts | 104° |
| 2026-04-30 07:26 | 47.62008 | 7.55608 | 19827 ft | 414 kts | 106° |
| 2026-04-30 07:27 | 47.61045 | 7.59665 | 19478 ft | 419 kts | 106° |
| 2026-04-30 07:27 | 47.60078 | 7.63740 | 18998 ft | 418 kts | 106° |
| 2026-04-30 07:27 | 47.59116 | 7.67799 | 18601 ft | 416 kts | 106° |
| 2026-04-30 07:27 | 47.58163 | 7.71833 | 18183 ft | 414 kts | 106° |
| 2026-04-30 07:28 | 47.57216 | 7.75850 | 17797 ft | 411 kts | 105° |
| 2026-04-30 07:28 | 47.56276 | 7.79836 | 17435 ft | 409 kts | 106° |
| 2026-04-30 07:28 | 47.55340 | 7.83802 | 17068 ft | 407 kts | 106° |
| 2026-04-30 07:28 | 47.54409 | 7.87740 | 16703 ft | 404 kts | 105° |
| 2026-04-30 07:29 | 47.53580 | 7.91232 | 16381 ft | 401 kts | 106° |
| 2026-04-30 07:29 | 47.52659 | 7.95118 | 16012 ft | 399 kts | 106° |
| 2026-04-30 07:29 | 47.51903 | 7.99056 | 15652 ft | 397 kts | 97° |
| 2026-04-30 07:29 | 47.51852 | 8.03099 | 15295 ft | 390 kts | 79° |
| 2026-04-30 07:30 | 47.54108 | 8.10121 | 14620 ft | 380 kts | 50° |
| 2026-04-30 07:30 | 47.55838 | 8.13040 | 14283 ft | 376 kts | 48° |
| 2026-04-30 07:30 | 47.57596 | 8.15931 | 13931 ft | 377 kts | 49° |
| 2026-04-30 07:31 | 47.59334 | 8.18818 | 13567 ft | 373 kts | 50° |
| 2026-04-30 07:31 | 47.60698 | 8.22070 | 13220 ft | 374 kts | 68° |
| 2026-04-30 07:31 | 47.61163 | 8.25784 | 12971 ft | 370 kts | 89° |
| 2026-04-30 07:31 | 47.60662 | 8.29446 | 12749 ft | 359 kts | 110° |
| 2026-04-30 07:32 | 47.59271 | 8.32445 | 12489 ft | 352 kts | 134° |
| 2026-04-30 07:32 | 47.57221 | 8.34294 | 12233 ft | 339 kts | 159° |
| 2026-04-30 07:32 | 47.54963 | 8.34614 | 12010 ft | 319 kts | 187° |
| 2026-04-30 07:32 | 47.52997 | 8.33377 | 11809 ft | 309 kts | 218° |
| 2026-04-30 07:33 | 47.51588 | 8.30961 | 11613 ft | 314 kts | 234° |
| 2026-04-30 07:33 | 47.49972 | 8.28807 | 11368 ft | 313 kts | 206° |
| 2026-04-30 07:33 | 47.47935 | 8.28100 | 11162 ft | 300 kts | 175° |
| 2026-04-30 07:33 | 47.45987 | 8.29009 | 10996 ft | 295 kts | 143° |
| 2026-04-30 07:34 | 47.44666 | 8.31222 | 10806 ft | 285 kts | 111° |
| 2026-04-30 07:34 | 47.44362 | 8.34038 | 10698 ft | 278 kts | 80° |
| 2026-04-30 07:34 | 47.45082 | 8.36643 | 10592 ft | 277 kts | 57° |
| 2026-04-30 07:34 | 47.46190 | 8.38991 | 10503 ft | 280 kts | 56° |
| 2026-04-30 07:35 | 47.47043 | 8.41571 | 10495 ft | 280 kts | 72° |
| 2026-04-30 07:35 | 47.47268 | 8.44406 | 10533 ft | 280 kts | 94° |
| 2026-04-30 07:35 | 47.46707 | 8.47158 | 10531 ft | 284 kts | 118° |
| 2026-04-30 07:35 | 47.45374 | 8.49317 | 10521 ft | 289 kts | 144° |
| 2026-04-30 07:36 | 47.43516 | 8.50347 | 10410 ft | 292 kts | 168° |
| 2026-04-30 07:36 | 47.41498 | 8.50773 | 10290 ft | 294 kts | 170° |
| 2026-04-30 07:36 | 47.39464 | 8.50885 | 10097 ft | 290 kts | 180° |
| 2026-04-30 07:36 | 47.37447 | 8.50759 | 9765 ft | 291 kts | 182° |
| 2026-04-30 07:37 | 47.35419 | 8.50507 | 9182 ft | 294 kts | 181° |
| 2026-04-30 07:37 | 47.33410 | 8.50398 | 8503 ft | 287 kts | 178° |
| 2026-04-30 07:37 | 47.31411 | 8.50491 | 7888 ft | 287 kts | 173° |
| 2026-04-30 07:37 | 47.29436 | 8.50814 | 7524 ft | 282 kts | 168° |
| 2026-04-30 07:38 | 47.27532 | 8.51384 | 7198 ft | 276 kts | 163° |
| 2026-04-30 07:38 | 47.25720 | 8.52218 | 6745 ft | 269 kts | 159° |
| 2026-04-30 07:38 | 47.23930 | 8.53001 | 6396 ft | 264 kts | 165° |
| 2026-04-30 07:38 | 47.22240 | 8.53685 | 6225 ft | 240 kts | 162° |
| 2026-04-30 07:39 | 47.20670 | 8.54289 | 6108 ft | 229 kts | 166° |
| 2026-04-30 07:39 | 47.19163 | 8.54854 | 5980 ft | 216 kts | 156° |
| 2026-04-30 07:39 | 47.18150 | 8.56242 | 5956 ft | 194 kts | 111° |
| 2026-04-30 07:39 | 47.17928 | 8.58172 | 5971 ft | 194 kts | 84° |
| 2026-04-30 07:40 | 47.18400 | 8.60021 | 5985 ft | 195 kts | 62° |
| 2026-04-30 07:40 | 47.19076 | 8.61729 | 5981 ft | 197 kts | 61° |
| 2026-04-30 07:40 | 47.19740 | 8.63488 | 5979 ft | 197 kts | 63° |
| 2026-04-30 07:40 | 47.20369 | 8.65276 | 5981 ft | 197 kts | 64° |
| 2026-04-30 07:41 | 47.20989 | 8.67069 | 5981 ft | 197 kts | 62° |
| 2026-04-30 07:41 | 47.21850 | 8.68637 | 5981 ft | 199 kts | 40° |
| 2026-04-30 07:41 | 47.23118 | 8.69445 | 5971 ft | 203 kts | 7° |
| 2026-04-30 07:41 | 47.24522 | 8.69270 | 5906 ft | 205 kts | 346° |
| 2026-04-30 07:42 | 47.25855 | 8.68479 | 5849 ft | 207 kts | 336° |
| 2026-04-30 07:42 | 47.27159 | 8.67564 | 5747 ft | 208 kts | 339° |
| 2026-04-30 07:42 | 47.28478 | 8.66670 | 5478 ft | 209 kts | 339° |
| 2026-04-30 07:42 | 47.29799 | 8.65772 | 5153 ft | 209 kts | 339° |
| 2026-04-30 07:43 | 47.31120 | 8.64869 | 4814 ft | 209 kts | 339° |
| 2026-04-30 07:43 | 47.32435 | 8.63969 | 4472 ft | 208 kts | 339° |
| 2026-04-30 07:43 | 47.33748 | 8.63072 | 4158 ft | 206 kts | 339° |
| 2026-04-30 07:43 | 47.35023 | 8.62199 | 3849 ft | 197 kts | 339° |
| 2026-04-30 07:44 | 47.36229 | 8.61372 | 3575 ft | 186 kts | 340° |
| 2026-04-30 07:44 | 47.37362 | 8.60596 | 3305 ft | 175 kts | 340° |
| 2026-04-30 07:44 | 47.38440 | 8.59858 | 3031 ft | 166 kts | 340° |
| 2026-04-30 07:44 | 47.39468 | 8.59155 | 2815 ft | 161 kts | 340° |
| 2026-04-30 07:45 | 47.40463 | 8.58475 | 2547 ft | 154 kts | 341° |
| 2026-04-30 07:45 | 47.41372 | 8.57849 | 2329 ft | 145 kts | 341° |
| 2026-04-30 07:45 | 47.42270 | 8.57234 | 2092 ft | 134 kts | 341° |
| 2026-04-30 07:45 | 47.43090 | 8.56672 | 1888 ft | 129 kts | 338° |
| 2026-04-30 07:46 | 47.43920 | 8.56089 | 1699 ft | 131 kts | 340° |
| 2026-04-30 07:46 | 47.44750 | 8.55536 | 1497 ft | 132 kts | 339° |
| 2026-04-30 07:46 | 47.45569 | 8.54989 | 1424 ft | 128 kts | 338° |
| 2026-04-30 07:46 | 47.46304 | 8.54481 | 1404 ft | 96 kts | 335° |
| 2026-04-30 07:47 | 47.46659 | 8.54224 | 1382 ft | 35 kts | 335° |
| 2026-04-30 07:47 | 47.46869 | 8.54078 | 1385 ft | 32 kts | 335° |
| 2026-04-30 07:47 | 47.46995 | 8.54050 | 1385 ft | 7 kts | 43° |
| 2026-04-30 07:47 | 47.47020 | 8.54119 | 1385 ft | 7 kts | 82° |
| 2026-04-30 07:48 | 47.47016 | 8.54194 | 1386 ft | 11 kts | 114° |
| 2026-04-30 07:48 | 47.46864 | 8.54376 | 1385 ft | 34 kts | 155° |
| 2026-04-30 07:48 | 47.46652 | 8.54502 | 1404 ft | 33 kts | 154° |
| 2026-04-30 07:48 | 47.46444 | 8.54647 | 1401 ft | 34 kts | 155° |
| 2026-04-30 07:49 | 47.46225 | 8.54799 | 1405 ft | 35 kts | 155° |
| 2026-04-30 07:49 | 47.46018 | 8.54953 | 1401 ft | 21 kts | 131° |
| 2026-04-30 07:49 | 47.45988 | 8.55156 | 1401 ft | 20 kts | 92° |
| 2026-04-30 07:49 | 47.45976 | 8.55359 | 1412 ft | 20 kts | 95° |
| 2026-04-30 07:50 | 47.45963 | 8.55562 | 1413 ft | 20 kts | 95° |
| 2026-04-30 07:50 | 47.45951 | 8.55682 | 1409 ft | 0 kts | 98° |
| 2026-04-30 07:50 | 47.45951 | 8.55704 | 1409 ft | 4 kts | 86° |
| 2026-04-30 07:50 | 47.45963 | 8.55717 | 1410 ft | 9 kts | 30° |
| 2026-04-30 07:51 | 47.46018 | 8.55734 | 1415 ft | 0 kts | 6° |
| 2026-04-30 07:51 | 47.46034 | 8.55736 | 1415 ft | 1 kts | 6° |
| 2026-04-30 07:51 | 47.46035 | 8.55736 | 1415 ft | 0 kts | 6° |